createdAt,value
2023-09-11T00:00:47.369Z,19.61
2023-09-11T00:01:47.392Z,19.60
2023-09-11T00:02:47.427Z,19.58
2023-09-11T00:03:47.425Z,19.60
2023-09-11T00:04:47.310Z,19.60
2023-09-11T00:05:58.692Z,19.60
2023-09-11T00:06:48.098Z,19.57
2023-09-11T00:07:47.304Z,19.58
2023-09-11T00:08:47.382Z,19.57
2023-09-11T00:09:47.251Z,19.55
2023-09-11T00:10:47.283Z,19.55
2023-09-11T00:11:48.030Z,19.54
2023-09-11T00:12:47.241Z,19.53
2023-09-11T00:13:47.222Z,19.53
2023-09-11T00:14:47.310Z,19.53
2023-09-11T00:15:47.193Z,19.53
2023-09-11T00:16:48.876Z,19.48
2023-09-11T00:17:47.270Z,19.48
2023-09-11T00:18:47.158Z,19.47
2023-09-11T00:19:47.162Z,19.46
2023-09-11T00:20:47.192Z,19.46
2023-09-11T00:21:47.429Z,19.42
2023-09-11T00:22:47.388Z,19.42
2023-09-11T00:23:47.386Z,19.40
2023-09-11T00:24:47.346Z,19.38
2023-09-11T00:25:47.149Z,19.40
2023-09-11T00:26:47.086Z,19.38
2023-09-11T00:27:47.074Z,19.36
2023-09-11T00:28:47.133Z,19.36
2023-09-11T00:29:47.045Z,19.36
2023-09-11T00:30:47.056Z,19.35
2023-09-11T00:31:47.057Z,19.35
2023-09-11T00:32:47.162Z,19.33
2023-09-11T00:33:47.056Z,19.33
2023-09-11T00:34:46.986Z,19.32
2023-09-11T00:35:47.171Z,19.31
2023-09-11T00:36:46.960Z,19.32
2023-09-11T00:37:46.950Z,19.32
2023-09-11T00:38:47.035Z,19.32
2023-09-11T00:39:47.037Z,19.31
2023-09-11T00:40:46.914Z,19.31
2023-09-11T00:41:47.048Z,19.31
2023-09-11T00:42:46.921Z,19.31
2023-09-11T00:43:46.875Z,19.29
2023-09-11T00:44:46.972Z,19.31
2023-09-11T00:45:46.858Z,19.31
2023-09-11T00:46:46.874Z,19.29
2023-09-11T00:47:47.779Z,19.28
2023-09-11T00:48:46.814Z,19.29
2023-09-11T00:49:46.824Z,19.28
2023-09-11T00:50:46.816Z,19.25
2023-09-11T00:51:46.788Z,19.25
2023-09-11T00:52:46.776Z,19.25
2023-09-11T00:53:46.787Z,19.25
2023-09-11T00:54:47.266Z,19.23
2023-09-11T00:55:46.779Z,19.23
2023-09-11T00:56:46.747Z,19.21
2023-09-11T00:57:46.745Z,19.20
2023-09-11T00:58:46.716Z,19.18
2023-09-11T00:59:46.791Z,19.18
2023-09-11T01:00:46.764Z,19.17
2023-09-11T01:01:46.713Z,19.15
2023-09-11T01:02:46.771Z,19.15
2023-09-11T01:03:46.672Z,19.14
2023-09-11T01:04:47.348Z,19.15
2023-09-11T01:05:46.701Z,19.14
2023-09-11T01:06:46.642Z,19.13
2023-09-11T01:07:47.240Z,19.11
2023-09-11T01:08:46.660Z,19.11
2023-09-11T01:09:46.585Z,19.11
2023-09-11T01:10:46.601Z,19.08
2023-09-11T01:11:46.594Z,19.08
2023-09-11T01:12:47.325Z,19.06
2023-09-11T01:13:46.569Z,19.08
2023-09-11T01:14:46.651Z,19.08
2023-09-11T01:15:47.114Z,19.08
2023-09-11T01:16:46.509Z,19.06
2023-09-11T01:17:46.539Z,19.08
2023-09-11T01:18:46.580Z,19.06
2023-09-11T01:19:46.474Z,19.05
2023-09-11T01:20:46.488Z,19.05
2023-09-11T01:21:46.451Z,19.05
2023-09-11T01:22:46.447Z,19.02
2023-09-11T01:23:46.509Z,19.01
2023-09-11T01:24:46.411Z,19.02
2023-09-11T01:25:46.405Z,18.99
2023-09-11T01:26:46.398Z,18.98
2023-09-11T01:27:46.389Z,18.98
2023-09-11T01:28:46.374Z,18.98
2023-09-11T01:29:46.495Z,18.97
2023-09-11T01:30:46.386Z,18.97
2023-09-11T01:31:46.336Z,18.97
2023-09-11T01:32:46.429Z,18.97
2023-09-11T01:33:46.444Z,18.95
2023-09-11T01:34:46.312Z,18.92
2023-09-11T01:35:46.316Z,18.92
2023-09-11T01:36:46.352Z,18.91
2023-09-11T01:37:46.276Z,18.91
2023-09-11T01:38:46.278Z,18.91
2023-09-11T01:39:46.274Z,18.91
2023-09-11T01:40:46.248Z,18.91
2023-09-11T01:41:46.281Z,18.92
2023-09-11T01:42:46.212Z,18.92
2023-09-11T01:43:46.210Z,18.92
2023-09-11T01:44:46.270Z,18.92
2023-09-11T01:45:46.204Z,18.91
2023-09-11T01:46:46.227Z,18.90
2023-09-11T01:47:46.424Z,18.91
2023-09-11T01:48:46.141Z,18.87
2023-09-11T01:49:46.781Z,18.86
2023-09-11T01:50:46.433Z,18.86
2023-09-11T01:51:46.323Z,18.86
2023-09-11T01:52:47.126Z,18.84
2023-09-11T01:53:46.241Z,18.83
2023-09-11T01:54:46.197Z,18.82
2023-09-11T01:55:46.241Z,18.80
2023-09-11T01:56:46.245Z,18.82
2023-09-11T01:57:46.111Z,18.80
2023-09-11T01:58:46.041Z,18.79
2023-09-11T01:59:46.101Z,18.77
2023-09-11T02:00:46.031Z,18.77
2023-09-11T02:01:46.225Z,18.77
2023-09-11T02:02:46.234Z,18.77
2023-09-11T02:03:46.192Z,18.77
2023-09-11T02:04:46.005Z,18.79
2023-09-11T02:05:46.092Z,18.76
2023-09-11T02:06:45.947Z,18.79
2023-09-11T02:07:45.935Z,18.76
2023-09-11T02:08:45.990Z,18.76
2023-09-11T02:09:45.913Z,18.77
2023-09-11T02:10:46.262Z,18.76
2023-09-11T02:11:45.925Z,18.74
2023-09-11T02:12:45.885Z,18.73
2023-09-11T02:13:45.873Z,18.73
2023-09-11T02:14:46.006Z,18.72
2023-09-11T02:15:45.884Z,18.72
2023-09-11T02:16:45.845Z,18.72
2023-09-11T02:17:45.906Z,18.70
2023-09-11T02:18:45.876Z,18.70
2023-09-11T02:19:45.804Z,18.72
2023-09-11T02:20:45.894Z,18.70
2023-09-11T02:21:45.779Z,18.72
2023-09-11T02:22:45.792Z,18.72
2023-09-11T02:23:45.823Z,18.70
2023-09-11T02:24:48.806Z,18.72
2023-09-11T02:25:45.737Z,18.72
2023-09-11T02:26:45.801Z,18.70
2023-09-11T02:27:45.716Z,18.68
2023-09-11T02:28:45.703Z,18.70
2023-09-11T02:29:45.858Z,18.68
2023-09-11T02:30:45.695Z,18.68
2023-09-11T02:31:45.731Z,18.70
2023-09-11T02:32:45.809Z,18.70
2023-09-11T02:33:45.652Z,18.70
2023-09-11T02:34:45.658Z,18.70
2023-09-11T02:35:45.704Z,18.70
2023-09-11T02:36:45.618Z,18.70
2023-09-11T02:37:45.598Z,18.67
2023-09-11T02:38:45.799Z,18.68
2023-09-11T02:39:45.614Z,18.68
2023-09-11T02:40:50.097Z,18.68
2023-09-11T02:41:45.633Z,18.67
2023-09-11T02:42:45.549Z,18.65
2023-09-11T02:43:45.559Z,18.65
2023-09-11T02:44:45.534Z,18.67
2023-09-11T02:45:45.623Z,18.64
2023-09-11T02:46:45.507Z,18.62
2023-09-11T02:47:45.581Z,18.61
2023-09-11T02:48:45.534Z,18.61
2023-09-11T02:49:45.486Z,18.59
2023-09-11T02:50:45.556Z,18.58
2023-09-11T02:51:45.457Z,18.59
2023-09-11T02:52:45.477Z,18.58
2023-09-11T02:53:45.482Z,18.58
2023-09-11T02:54:45.431Z,18.58
2023-09-11T02:55:45.496Z,18.58
2023-09-11T02:56:45.410Z,18.58
2023-09-11T02:57:45.414Z,18.58
2023-09-11T02:58:45.626Z,18.59
2023-09-11T02:59:45.420Z,18.59
2023-09-11T03:00:45.352Z,18.59
2023-09-11T03:01:45.334Z,18.58
2023-09-11T03:02:45.379Z,18.58
2023-09-11T03:03:45.392Z,18.58
2023-09-11T03:04:45.319Z,18.58
2023-09-11T03:05:45.418Z,18.58
2023-09-11T03:06:45.284Z,18.57
2023-09-11T03:07:45.277Z,18.57
2023-09-11T03:08:53.782Z,18.55
2023-09-11T03:09:45.248Z,18.57
2023-09-11T03:10:45.346Z,18.57
2023-09-11T03:11:45.255Z,18.57
2023-09-11T03:12:45.333Z,18.55
2023-09-11T03:13:45.220Z,18.55
2023-09-11T03:14:45.250Z,18.55
2023-09-11T03:15:45.290Z,18.57
2023-09-11T03:16:45.208Z,18.55
2023-09-11T03:17:45.246Z,18.55
2023-09-11T03:18:53.756Z,18.52
2023-09-11T03:19:45.129Z,18.54
2023-09-11T03:20:45.214Z,18.54
2023-09-11T03:21:45.121Z,18.54
2023-09-11T03:22:45.108Z,18.54
2023-09-11T03:23:45.113Z,18.50
2023-09-11T03:24:45.079Z,18.52
2023-09-11T03:25:45.085Z,18.52
2023-09-11T03:26:45.125Z,18.49
2023-09-11T03:27:45.063Z,18.49
2023-09-11T03:28:45.096Z,18.49
2023-09-11T03:29:45.051Z,18.49
2023-09-11T03:30:45.021Z,18.49
2023-09-11T03:31:45.016Z,18.49
2023-09-11T03:32:45.147Z,18.47
2023-09-11T03:33:45.145Z,18.47
2023-09-11T03:34:44.967Z,18.47
2023-09-11T03:35:45.123Z,18.46
2023-09-11T03:36:44.953Z,18.46
2023-09-11T03:37:44.929Z,18.46
2023-09-11T03:38:44.945Z,18.44
2023-09-11T03:39:44.956Z,18.46
2023-09-11T03:40:44.946Z,18.46
2023-09-11T03:41:44.930Z,18.44
2023-09-11T03:42:44.879Z,18.44
2023-09-11T03:43:44.880Z,18.44
2023-09-11T03:44:44.930Z,18.43
2023-09-11T03:45:44.887Z,18.43
2023-09-11T03:46:44.855Z,18.44
2023-09-11T03:47:44.967Z,18.43
2023-09-11T03:48:45.431Z,18.43
2023-09-11T03:49:44.818Z,18.42
2023-09-11T03:50:44.831Z,18.42
2023-09-11T03:51:44.774Z,18.40
2023-09-11T03:52:44.758Z,18.40
2023-09-11T03:53:44.964Z,18.42
2023-09-11T03:54:44.747Z,18.39
2023-09-11T03:55:44.730Z,18.40
2023-09-11T03:56:44.905Z,18.40
2023-09-11T03:57:44.744Z,18.36
2023-09-11T03:58:44.732Z,18.37
2023-09-11T03:59:44.778Z,18.37
2023-09-11T04:00:44.678Z,18.37
2023-09-11T04:01:44.685Z,18.36
2023-09-11T04:02:44.717Z,18.36
2023-09-11T04:03:44.955Z,18.34
2023-09-11T04:04:44.664Z,18.37
2023-09-11T04:05:44.675Z,18.37
2023-09-11T04:06:44.603Z,18.37
2023-09-11T04:07:44.601Z,18.37
2023-09-11T04:08:44.669Z,18.37
2023-09-11T04:09:44.597Z,18.36
2023-09-11T04:10:44.562Z,18.36
2023-09-11T04:11:44.689Z,18.34
2023-09-11T04:12:44.546Z,18.36
2023-09-11T04:13:44.611Z,18.36
2023-09-11T04:14:44.579Z,18.34
2023-09-11T04:15:44.512Z,18.36
2023-09-11T04:16:44.583Z,18.36
2023-09-11T04:17:44.549Z,18.36
2023-09-11T04:18:45.147Z,18.36
2023-09-11T04:19:44.497Z,18.36
2023-09-11T04:20:44.472Z,18.36
2023-09-11T04:21:44.524Z,18.37
2023-09-11T04:22:44.459Z,18.36
2023-09-11T04:23:44.462Z,18.37
2023-09-11T04:24:44.455Z,18.37
2023-09-11T04:25:44.394Z,18.37
2023-09-11T04:26:44.421Z,18.36
2023-09-11T04:27:44.411Z,18.36
2023-09-11T04:28:44.402Z,18.36
2023-09-11T04:29:44.400Z,18.34
2023-09-11T04:30:44.396Z,18.34
2023-09-11T04:31:44.360Z,18.34
2023-09-11T04:32:44.385Z,18.33
2023-09-11T04:33:44.445Z,18.31
2023-09-11T04:34:44.294Z,18.31
2023-09-11T04:35:44.368Z,18.29
2023-09-11T04:36:44.285Z,18.29
2023-09-11T04:37:44.277Z,18.31
2023-09-11T04:38:44.662Z,18.29
2023-09-11T04:39:44.246Z,18.29
2023-09-11T04:40:44.231Z,18.28
2023-09-11T04:41:44.269Z,18.28
2023-09-11T04:42:44.246Z,18.27
2023-09-11T04:43:44.897Z,18.27
2023-09-11T04:44:44.216Z,18.27
2023-09-11T04:45:44.256Z,18.25
2023-09-11T04:46:44.217Z,18.27
2023-09-11T04:47:44.251Z,18.27
2023-09-11T04:48:44.546Z,18.27
2023-09-11T04:49:44.192Z,18.25
2023-09-11T04:50:44.236Z,18.27
2023-09-11T04:51:44.129Z,18.25
2023-09-11T04:52:44.094Z,18.25
2023-09-11T04:53:44.132Z,18.25
2023-09-11T04:54:44.084Z,18.22
2023-09-11T04:55:44.098Z,18.22
2023-09-11T04:56:44.336Z,18.24
2023-09-11T04:57:44.069Z,18.22
2023-09-11T04:58:44.055Z,18.22
2023-09-11T04:59:45.202Z,18.22
2023-09-11T05:00:44.069Z,18.22
2023-09-11T05:01:44.079Z,18.24
2023-09-11T05:02:44.091Z,18.25
2023-09-11T05:03:44.091Z,18.25
2023-09-11T05:04:43.966Z,18.24
2023-09-11T05:05:44.037Z,18.25
2023-09-11T05:06:43.959Z,18.25
2023-09-11T05:07:43.944Z,18.24
2023-09-11T05:09:02.334Z,18.25
2023-09-11T05:09:43.968Z,18.24
2023-09-11T05:10:43.919Z,18.25
2023-09-11T05:11:43.957Z,18.24
2023-09-11T05:12:43.950Z,18.24
2023-09-11T05:13:43.875Z,18.22
2023-09-11T05:14:45.595Z,18.21
2023-09-11T05:15:43.910Z,18.22
2023-09-11T05:16:43.915Z,18.24
2023-09-11T05:17:43.926Z,18.22
2023-09-11T05:18:44.039Z,18.24
2023-09-11T05:19:43.906Z,18.24
2023-09-11T05:20:43.846Z,18.24
2023-09-11T05:21:43.771Z,18.27
2023-09-11T05:22:43.756Z,18.27
2023-09-11T05:23:43.795Z,18.28
2023-09-11T05:24:43.756Z,18.29
2023-09-11T05:25:44.336Z,18.31
2023-09-11T05:26:43.780Z,18.31
2023-09-11T05:27:43.723Z,18.34
2023-09-11T05:28:43.890Z,18.34
2023-09-11T05:29:43.744Z,18.37
2023-09-11T05:30:43.681Z,18.37
2023-09-11T05:31:43.757Z,18.39
2023-09-11T05:32:43.761Z,18.40
2023-09-11T05:33:43.692Z,18.42
2023-09-11T05:34:43.664Z,18.43
2023-09-11T05:35:43.665Z,18.43
2023-09-11T05:36:43.606Z,18.44
2023-09-11T05:37:43.602Z,18.46
2023-09-11T05:38:43.902Z,18.47
2023-09-11T05:39:43.614Z,18.49
2023-09-11T05:40:43.556Z,18.47
2023-09-11T05:41:43.636Z,18.49
2023-09-11T05:42:43.547Z,18.52
2023-09-11T05:43:43.553Z,18.52
2023-09-11T05:44:43.567Z,18.55
2023-09-11T05:45:43.593Z,18.57
2023-09-11T05:46:43.488Z,18.58
2023-09-11T05:47:43.596Z,18.61
2023-09-11T05:48:44.154Z,18.64
2023-09-11T05:49:43.470Z,18.65
2023-09-11T05:50:43.577Z,18.65
2023-09-11T05:51:43.453Z,18.67
2023-09-11T05:52:43.428Z,18.70
2023-09-11T05:53:43.449Z,18.70
2023-09-11T05:54:43.404Z,18.74
2023-09-11T05:55:43.409Z,18.76
2023-09-11T05:56:43.427Z,18.79
2023-09-11T05:57:43.393Z,18.80
2023-09-11T05:58:43.612Z,18.83
2023-09-11T05:59:43.431Z,18.86
2023-09-11T06:00:43.415Z,18.87
2023-09-11T06:01:43.410Z,18.92
2023-09-11T06:02:43.385Z,18.94
2023-09-11T06:03:43.497Z,18.95
2023-09-11T06:04:43.403Z,18.99
2023-09-11T06:05:43.328Z,19.05
2023-09-11T06:06:43.278Z,19.05
2023-09-11T06:07:43.274Z,19.08
2023-09-11T06:08:43.675Z,19.13
2023-09-11T06:09:43.235Z,19.13
2023-09-11T06:10:43.247Z,19.17
2023-09-11T06:11:43.241Z,19.18
2023-09-11T06:12:43.231Z,19.20
2023-09-11T06:13:43.271Z,19.21
2023-09-11T06:14:43.241Z,19.23
2023-09-11T06:15:43.197Z,19.28
2023-09-11T06:16:43.165Z,19.31
2023-09-11T06:17:45.445Z,19.33
2023-09-11T06:18:43.548Z,19.35
2023-09-11T06:19:43.304Z,19.36
2023-09-11T06:20:43.259Z,19.38
2023-09-11T06:21:43.379Z,19.39
2023-09-11T06:22:43.826Z,19.40
2023-09-11T06:23:43.139Z,19.43
2023-09-11T06:24:43.082Z,19.47
2023-09-11T06:25:43.114Z,19.47
2023-09-11T06:26:43.136Z,19.48
2023-09-11T06:27:43.059Z,19.50
2023-09-11T06:28:43.380Z,19.53
2023-09-11T06:29:43.077Z,19.54
2023-09-11T06:30:43.036Z,19.54
2023-09-11T06:31:43.062Z,19.57
2023-09-11T06:32:43.278Z,19.57
2023-09-11T06:33:43.081Z,19.60
2023-09-11T06:34:43.097Z,19.61
2023-09-11T06:35:42.985Z,19.63
2023-09-11T06:36:42.959Z,19.66
2023-09-11T06:37:43.046Z,19.66
2023-09-11T06:38:43.281Z,19.68
2023-09-11T06:39:42.917Z,19.72
2023-09-11T06:40:42.938Z,19.73
2023-09-11T06:41:42.928Z,19.75
2023-09-11T06:42:42.956Z,19.76
2023-09-11T06:43:42.872Z,19.79
2023-09-11T06:44:42.906Z,19.83
2023-09-11T06:45:42.923Z,19.83
2023-09-11T06:46:42.844Z,19.88
2023-09-11T06:47:42.854Z,19.90
2023-09-11T06:48:43.294Z,19.93
2023-09-11T06:49:42.855Z,19.94
2023-09-11T06:50:42.862Z,19.97
2023-09-11T06:51:42.784Z,20.02
2023-09-11T06:52:42.819Z,20.05
2023-09-11T06:53:42.842Z,20.08
2023-09-11T06:54:42.766Z,20.09
2023-09-11T06:55:42.744Z,20.13
2023-09-11T06:56:42.781Z,20.16
2023-09-11T06:57:42.841Z,20.20
2023-09-11T06:58:42.993Z,20.21
2023-09-11T06:59:42.852Z,20.25
2023-09-11T07:00:42.733Z,20.30
2023-09-11T07:01:42.685Z,20.33
2023-09-11T07:02:42.852Z,20.35
2023-09-11T07:03:42.815Z,20.41
2023-09-11T07:04:42.661Z,20.43
2023-09-11T07:05:42.660Z,20.46
2023-09-11T07:06:42.688Z,20.50
2023-09-11T07:07:42.620Z,20.53
2023-09-11T07:08:43.025Z,20.56
2023-09-11T07:09:43.362Z,20.61
2023-09-11T07:10:42.639Z,20.66
2023-09-11T07:11:42.569Z,20.68
2023-09-11T07:12:43.208Z,20.72
2023-09-11T07:13:42.571Z,20.76
2023-09-11T07:14:42.646Z,20.79
2023-09-11T07:15:43.390Z,20.81
2023-09-11T07:16:42.790Z,20.84
2023-09-11T07:17:43.209Z,20.87
2023-09-11T07:18:45.107Z,20.91
2023-09-11T07:19:42.670Z,20.95
2023-09-11T07:20:42.980Z,20.98
2023-09-11T07:21:42.645Z,21.02
2023-09-11T07:22:42.547Z,21.05
2023-09-11T07:23:42.522Z,21.08
2023-09-11T07:24:42.417Z,21.09
2023-09-11T07:25:42.448Z,21.13
2023-09-11T07:26:42.494Z,21.14
2023-09-11T07:27:42.449Z,21.17
2023-09-11T07:28:42.630Z,21.20
2023-09-11T07:29:42.395Z,21.24
2023-09-11T07:30:42.468Z,21.27
2023-09-11T07:31:42.477Z,21.30
2023-09-11T07:32:42.677Z,21.36
2023-09-11T07:33:42.353Z,21.39
2023-09-11T07:34:42.860Z,21.42
2023-09-11T07:35:42.377Z,21.50
2023-09-11T07:36:42.320Z,21.53
2023-09-11T07:37:42.255Z,21.56
2023-09-11T07:38:42.693Z,21.60
2023-09-11T07:39:42.230Z,21.61
2023-09-11T07:40:42.246Z,21.67
2023-09-11T07:41:42.400Z,21.71
2023-09-11T07:42:42.274Z,21.74
2023-09-11T07:43:42.301Z,21.75
2023-09-11T07:44:42.237Z,21.79
2023-09-11T07:45:42.184Z,21.82
2023-09-11T07:46:42.311Z,21.88
2023-09-11T07:47:42.226Z,21.91
2023-09-11T07:48:42.459Z,21.95
2023-09-11T07:49:42.153Z,21.99
2023-09-11T07:50:42.145Z,22.04
2023-09-11T07:51:42.183Z,22.09
2023-09-11T07:52:42.094Z,22.12
2023-09-11T07:53:42.182Z,22.14
2023-09-11T07:54:42.069Z,22.19
2023-09-11T07:55:42.088Z,22.22
2023-09-11T07:56:42.115Z,22.31
2023-09-11T07:57:42.927Z,22.37
2023-09-11T07:58:42.520Z,22.44
2023-09-11T07:59:42.081Z,22.49
2023-09-11T08:00:42.055Z,22.50
2023-09-11T08:01:42.049Z,22.56
2023-09-11T08:02:42.039Z,22.59
2023-09-11T08:03:42.132Z,22.65
2023-09-11T08:04:42.000Z,22.69
2023-09-11T08:05:42.058Z,22.74
2023-09-11T08:06:41.987Z,22.78
2023-09-11T08:07:45.805Z,22.80
2023-09-11T08:08:42.474Z,22.84
2023-09-11T08:09:42.073Z,22.86
2023-09-11T08:10:41.920Z,22.90
2023-09-11T08:11:41.907Z,22.93
2023-09-11T08:12:41.957Z,22.97
2023-09-11T08:13:41.882Z,23.02
2023-09-11T08:14:41.889Z,23.02
2023-09-11T08:15:41.858Z,23.07
2023-09-11T08:16:41.873Z,23.11
2023-09-11T08:17:42.408Z,23.17
2023-09-11T08:18:43.152Z,23.23
2023-09-11T08:19:41.821Z,23.24
2023-09-11T08:20:41.877Z,23.27
2023-09-11T08:21:44.457Z,23.31
2023-09-11T08:22:42.122Z,23.31
2023-09-11T08:23:42.003Z,23.34
2023-09-11T08:24:41.948Z,23.38
2023-09-11T08:25:41.759Z,23.42
2023-09-11T08:26:41.758Z,23.45
2023-09-11T08:27:41.714Z,23.47
2023-09-11T08:28:41.964Z,23.52
2023-09-11T08:29:41.744Z,23.53
2023-09-11T08:30:42.423Z,23.57
2023-09-11T08:31:41.663Z,23.60
2023-09-11T08:32:41.713Z,23.65
2023-09-11T08:34:41.683Z,23.70
2023-09-11T08:35:41.629Z,23.71
2023-09-11T08:36:43.607Z,23.76
2023-09-11T08:37:41.590Z,23.77
2023-09-11T08:38:41.851Z,23.77
2023-09-11T08:39:41.570Z,23.80
2023-09-11T08:40:41.583Z,23.80
2023-09-11T08:41:41.600Z,23.85
2023-09-11T08:42:41.548Z,23.85
2023-09-11T08:43:41.543Z,23.86
2023-09-11T08:44:41.650Z,23.87
2023-09-11T08:45:41.562Z,23.90
2023-09-11T08:46:41.542Z,23.92
2023-09-11T08:47:41.552Z,23.97
2023-09-11T08:48:41.950Z,23.98
2023-09-11T08:49:41.460Z,23.98
2023-09-11T08:50:41.464Z,24.00
2023-09-11T08:51:41.441Z,24.02
2023-09-11T08:52:41.442Z,24.02
2023-09-11T08:53:41.472Z,24.02
2023-09-11T08:54:41.436Z,24.04
2023-09-11T08:55:41.447Z,24.05
2023-09-11T08:56:41.580Z,24.08
2023-09-11T08:57:41.410Z,24.12
2023-09-11T08:58:41.723Z,24.16
2023-09-11T08:59:41.418Z,24.17
2023-09-11T09:00:41.383Z,24.20
2023-09-11T09:01:41.459Z,24.29
2023-09-11T09:02:41.447Z,24.35
2023-09-11T09:03:41.424Z,24.41
2023-09-11T09:04:41.498Z,24.44
2023-09-11T09:05:41.301Z,24.45
2023-09-11T09:06:41.306Z,24.45
2023-09-11T09:07:41.289Z,24.49
2023-09-11T09:08:41.591Z,24.50
2023-09-11T09:09:42.242Z,24.53
2023-09-11T09:10:41.381Z,24.56
2023-09-11T09:11:41.227Z,24.59
2023-09-11T09:12:41.261Z,24.67
2023-09-11T09:13:41.389Z,24.75
2023-09-11T09:14:41.305Z,24.80
2023-09-11T09:15:41.193Z,24.88
2023-09-11T09:16:41.330Z,24.91
2023-09-11T09:17:41.217Z,24.91
2023-09-11T09:18:42.145Z,24.95
2023-09-11T09:19:41.201Z,25.02
2023-09-11T09:20:41.209Z,25.06
2023-09-11T09:21:41.289Z,25.09
2023-09-11T09:22:41.151Z,25.17
2023-09-11T09:23:41.825Z,25.24
2023-09-11T09:24:41.116Z,25.30
2023-09-11T09:25:41.096Z,25.32
2023-09-11T09:26:41.179Z,25.35
2023-09-11T09:27:41.947Z,25.38
2023-09-11T09:28:41.351Z,25.38
2023-09-11T09:29:41.046Z,25.39
2023-09-11T09:30:41.327Z,25.39
2023-09-11T09:31:41.336Z,25.38
2023-09-11T09:32:41.871Z,25.38
2023-09-11T09:33:41.573Z,25.38
2023-09-11T09:34:41.257Z,25.38
2023-09-11T09:35:41.414Z,25.39
2023-09-11T09:36:41.868Z,25.44
2023-09-11T09:37:41.097Z,25.52
2023-09-11T09:38:41.132Z,25.64
2023-09-11T09:39:40.958Z,25.72
2023-09-11T09:40:40.938Z,25.80
2023-09-11T09:41:40.958Z,25.86
2023-09-11T09:42:40.883Z,25.93
2023-09-11T09:43:41.891Z,25.98
2023-09-11T09:44:40.974Z,26.04
2023-09-11T09:45:40.852Z,26.08
2023-09-11T09:46:40.926Z,26.15
2023-09-11T09:47:40.915Z,26.20
2023-09-11T09:48:41.182Z,26.24
2023-09-11T09:49:40.848Z,26.28
2023-09-11T09:50:40.850Z,26.32
2023-09-11T09:51:40.806Z,26.37
2023-09-11T09:52:40.824Z,26.42
2023-09-11T09:53:42.104Z,26.43
2023-09-11T09:54:40.781Z,26.49
2023-09-11T09:55:40.805Z,26.50
2023-09-11T09:56:40.783Z,26.50
2023-09-11T09:57:40.757Z,26.49
2023-09-11T09:58:41.090Z,26.49
2023-09-11T09:59:40.763Z,26.49
2023-09-11T10:00:40.765Z,26.50
2023-09-11T10:01:40.730Z,26.52
2023-09-11T10:02:40.709Z,26.52
2023-09-11T10:03:41.725Z,26.49
2023-09-11T10:04:41.548Z,26.46
2023-09-11T10:05:40.651Z,26.43
2023-09-11T10:06:40.630Z,26.39
2023-09-11T10:07:40.736Z,26.40
2023-09-11T10:08:40.654Z,26.42
2023-09-11T10:09:40.586Z,26.49
2023-09-11T10:10:40.577Z,26.50
2023-09-11T10:11:41.482Z,26.50
2023-09-11T10:12:40.553Z,26.55
2023-09-11T10:13:40.834Z,26.59
2023-09-11T10:14:40.623Z,26.65
2023-09-11T10:15:40.564Z,26.69
2023-09-11T10:16:40.536Z,26.74
2023-09-11T10:17:40.693Z,26.72
2023-09-11T10:18:40.632Z,26.69
2023-09-11T10:19:40.505Z,26.68
2023-09-11T10:20:40.880Z,26.65
2023-09-11T10:21:40.446Z,26.64
2023-09-11T10:22:40.895Z,26.64
2023-09-11T10:23:40.744Z,26.61
2023-09-11T10:24:40.420Z,26.59
2023-09-11T10:25:40.426Z,26.62
2023-09-11T10:26:40.430Z,26.65
2023-09-11T10:27:40.397Z,26.67
2023-09-11T10:28:40.419Z,26.67
2023-09-11T10:29:40.421Z,26.67
2023-09-11T10:30:43.621Z,26.72
2023-09-11T10:31:40.410Z,26.69
2023-09-11T10:32:40.492Z,26.72
2023-09-11T10:33:41.691Z,26.73
2023-09-11T10:34:40.442Z,26.76
2023-09-11T10:35:40.339Z,26.76
2023-09-11T10:36:40.309Z,26.80
2023-09-11T10:37:40.296Z,26.84
2023-09-11T10:38:40.285Z,26.89
2023-09-11T10:39:40.252Z,26.94
2023-09-11T10:40:40.268Z,26.95
2023-09-11T10:41:40.269Z,26.98
2023-09-11T10:42:40.217Z,26.98
2023-09-11T10:43:40.602Z,26.98
2023-09-11T10:44:40.266Z,26.96
2023-09-11T10:45:40.224Z,26.95
2023-09-11T10:46:40.294Z,26.94
2023-09-11T10:47:40.833Z,26.92
2023-09-11T10:48:40.316Z,26.87
2023-09-11T10:49:40.766Z,26.86
2023-09-11T10:50:40.168Z,26.83
2023-09-11T10:51:40.181Z,26.86
2023-09-11T10:52:40.129Z,26.87
2023-09-11T10:53:40.431Z,26.91
2023-09-11T10:54:40.120Z,26.92
2023-09-11T10:55:40.116Z,26.95
2023-09-11T10:56:40.173Z,26.99
2023-09-11T10:57:40.083Z,27.02
2023-09-11T10:58:40.068Z,27.04
2023-09-11T10:59:40.115Z,27.04
2023-09-11T11:00:40.409Z,27.04
2023-09-11T11:01:40.084Z,27.02
2023-09-11T11:02:40.152Z,27.04
2023-09-11T11:03:40.472Z,27.06
2023-09-11T11:04:39.979Z,27.06
2023-09-11T11:05:40.781Z,27.11
2023-09-11T11:06:39.965Z,27.14
2023-09-11T11:07:39.956Z,27.19
2023-09-11T11:08:40.053Z,27.23
2023-09-11T11:09:40.120Z,27.26
2023-09-11T11:10:39.942Z,27.29
2023-09-11T11:11:39.938Z,27.32
2023-09-11T11:12:39.916Z,27.36
2023-09-11T11:13:40.385Z,27.42
2023-09-11T11:14:39.890Z,27.48
2023-09-11T11:15:39.978Z,27.54
2023-09-11T11:16:40.795Z,27.61
2023-09-11T11:17:39.945Z,27.64
2023-09-11T11:18:39.948Z,27.62
2023-09-11T11:19:39.834Z,27.66
2023-09-11T11:20:39.825Z,27.67
2023-09-11T11:21:40.768Z,27.70
2023-09-11T11:22:39.812Z,27.70
2023-09-11T11:23:40.030Z,27.74
2023-09-11T11:24:39.815Z,27.79
2023-09-11T11:25:39.801Z,27.80
2023-09-11T11:26:39.774Z,27.84
2023-09-11T11:27:39.731Z,27.80
2023-09-11T11:28:40.126Z,27.85
2023-09-11T11:29:41.040Z,27.88
2023-09-11T11:30:39.715Z,27.88
2023-09-11T11:31:39.722Z,27.88
2023-09-11T11:32:39.727Z,27.86
2023-09-11T11:33:39.844Z,27.85
2023-09-11T11:34:39.674Z,27.85
2023-09-11T11:35:39.758Z,27.84
2023-09-11T11:36:39.648Z,27.82
2023-09-11T11:37:39.631Z,27.85
2023-09-11T11:38:40.111Z,27.91
2023-09-11T11:39:39.611Z,27.94
2023-09-11T11:40:39.595Z,27.98
2023-09-11T11:41:39.643Z,27.99
2023-09-11T11:42:40.270Z,27.99
2023-09-11T11:43:39.587Z,28.01
2023-09-11T11:44:39.590Z,28.01
2023-09-11T11:45:39.570Z,27.99
2023-09-11T11:46:39.554Z,27.98
2023-09-11T11:47:39.641Z,27.99
2023-09-11T11:48:40.041Z,28.03
2023-09-11T11:49:39.496Z,28.04
2023-09-11T11:50:39.526Z,28.07
2023-09-11T11:51:39.480Z,28.04
2023-09-11T11:52:39.482Z,28.06
2023-09-11T11:53:40.004Z,28.06
2023-09-11T11:54:39.455Z,28.01
2023-09-11T11:55:39.432Z,27.98
2023-09-11T11:56:39.478Z,27.91
2023-09-11T11:57:39.914Z,27.86
2023-09-11T11:58:39.709Z,27.86
2023-09-11T11:59:39.448Z,27.88
2023-09-11T12:00:39.397Z,27.86
2023-09-11T12:01:39.377Z,27.88
2023-09-11T12:02:39.482Z,27.91
2023-09-11T12:03:39.519Z,27.94
2023-09-11T12:04:48.976Z,27.95
2023-09-11T12:05:39.383Z,27.98
2023-09-11T12:06:39.298Z,27.98
2023-09-11T12:07:39.317Z,27.96
2023-09-11T12:08:39.451Z,27.96
2023-09-11T12:09:39.285Z,28.01
2023-09-11T12:10:39.258Z,27.99
2023-09-11T12:11:39.354Z,27.98
2023-09-11T12:12:39.273Z,27.96
2023-09-11T12:13:48.821Z,27.94
2023-09-11T12:14:39.281Z,27.94
2023-09-11T12:15:39.216Z,27.89
2023-09-11T12:16:39.286Z,27.85
2023-09-11T12:17:39.265Z,27.85
2023-09-11T12:18:39.535Z,27.84
2023-09-11T12:19:39.194Z,27.82
2023-09-11T12:20:39.251Z,27.77
2023-09-11T12:21:39.549Z,27.74
2023-09-11T12:22:40.917Z,27.71
2023-09-11T12:23:39.185Z,27.70
2023-09-11T12:24:39.158Z,27.69
2023-09-11T12:25:39.150Z,27.69
2023-09-11T12:26:39.192Z,27.70
2023-09-11T12:27:39.893Z,27.69
2023-09-11T12:28:39.174Z,27.69
2023-09-11T12:29:39.165Z,27.66
2023-09-11T12:30:39.059Z,27.66
2023-09-11T12:31:39.432Z,27.66
2023-09-11T12:32:39.077Z,27.66
2023-09-11T12:33:39.138Z,27.67
2023-09-11T12:34:39.001Z,27.71
2023-09-11T12:35:39.072Z,27.76
2023-09-11T12:36:38.986Z,27.82
2023-09-11T12:37:38.977Z,27.85
2023-09-11T12:38:38.998Z,27.89
2023-09-11T12:39:38.952Z,27.95
2023-09-11T12:40:39.608Z,28.04
2023-09-11T12:41:38.941Z,28.13
2023-09-11T12:42:38.995Z,28.16
2023-09-11T12:43:38.988Z,28.21
2023-09-11T12:44:39.064Z,28.31
2023-09-11T12:45:38.931Z,28.36
2023-09-11T12:46:38.889Z,28.41
2023-09-11T12:47:39.006Z,28.46
2023-09-11T12:48:39.075Z,28.46
2023-09-11T12:49:38.863Z,28.43
2023-09-11T12:50:38.865Z,28.41
2023-09-11T12:51:38.827Z,28.40
2023-09-11T12:52:38.834Z,28.40
2023-09-11T12:53:38.828Z,28.41